Latest Weather Observations for Salmon Gums RS

IDW60801

Issued at 4:35 pm WST Wednesday 30 July 2014 (issued every 30 minutes, with the page automatically refreshed every 10 minutes)

About weather observations | Map of weather stations | Latest weather observations for WA | Other Formats
Station Details ID: 012071 Name: SALMON GUMS RES.STN. Lat: -32.99 Lon: 121.62 Height: 249.0 m
Data from the previous 72 hours. | See also: Recent months at Salmon Gums RS
Date/Time
WST
Temp
°C
App
Temp
°C
Dew
Point
Rel
Hum
%
Delta-T
°C
Wind Press
QNH
hPa
Press
MSL
hPa
Rain
since 9 am
mm
Dir
 
Spd
km/h
Gust
km/h
Spd
kts
Gust
kts
30/04:30pm 16.8 12.2 6.6 51 5.1 NNW 20 33 11 18 - - 0.0
30/04:00pm 17.4 12.1 6.6 49 5.4 NNW 24 39 13 21 - - 0.0
30/03:30pm 18.2 13.6 6.7 47 5.8 NNW 20 28 11 15 - - 0.0
30/03:00pm 18.2 13.3 6.7 47 5.8 WNW 22 39 12 21 - - 0.0
30/02:30pm 18.9 14.7 7.4 47 5.9 NW 19 33 10 18 - - 0.0
30/02:00pm 18.3 13.8 6.8 47 5.8 NNW 20 39 11 21 - - 0.0
30/01:30pm 17.9 13.0 6.7 48 5.6 NNW 22 35 12 19 - - 0.0
30/01:00pm 18.2 13.3 6.7 47 5.8 WNW 22 32 12 17 - - 0.0
30/12:30pm 17.7 12.8 6.9 49 5.5 NW 22 35 12 19 - - 0.0
30/12:00pm 16.5 11.6 6.9 53 4.8 W 22 35 12 19 - - 0.0
30/11:30am 16.1 11.2 7.1 55 4.5 W 22 37 12 20 - - 0.0
30/11:00am 15.1 10.3 7.2 59 3.9 WNW 22 35 12 19 - - 0.0
30/10:30am 14.3 9.0 6.6 60 3.8 WNW 24 39 13 21 - - 0.0
30/10:00am 13.7 8.4 6.8 63 3.4 WNW 24 39 13 21 - - 0.0
30/09:30am 13.2 9.0 7.4 68 2.9 WNW 19 28 10 15 - - 0.0
30/09:00am 12.2 8.4 7.7 74 2.2 WNW 17 28 9 15 - - 0.0
30/08:30am 10.9 8.4 8.1 83 1.4 NW 11 19 6 10 - - 0.0
30/08:00am 9.8 6.8 7.6 86 1.1 WNW 13 17 7 9 - - 0.0
30/07:30am 9.3 6.2 7.4 88 0.9 NW 13 17 7 9 - - 0.0
30/07:00am 8.9 5.8 7.2 89 0.8 NNW 13 19 7 10 - - 0.0
30/06:30am 8.8 6.5 7.4 91 0.7 NNW 9 15 5 8 - - 0.0
30/06:00am 8.1 5.7 6.9 92 0.6 NNW 9 13 5 7 - - 0.0
30/05:30am 7.5 4.5 6.1 91 0.6 NNW 11 15 6 8 - - 0.0
30/05:00am 7.8 5.2 6.3 90 0.7 NW 9 15 5 8 - - 0.0
30/04:30am 7.9 5.3 6.2 89 0.8 NNW 9 17 5 9 - - 0.0
30/04:00am 8.1 5.5 6.2 88 0.9 NW 9 15 5 8 - - 0.0
30/03:30am 8.3 5.7 6.3 87 0.9 NW 9 13 5 7 - - 0.0
30/03:00am 8.6 6.0 6.2 85 1.1 NW 9 15 5 8 - - 0.0
30/02:30am 8.6 6.0 6.2 85 1.1 NW 9 15 5 8 - - 0.0
30/02:00am 8.9 5.9 6.0 82 1.3 NW 11 15 6 8 - - 0.0
30/01:30am 9.5 6.9 6.2 80 1.5 NNW 9 13 5 7 - - 0.0
30/01:00am 9.3 6.7 6.2 81 1.4 NNW 9 15 5 8 - - 0.0
30/12:30am 8.4 6.0 5.3 81 1.4 NW 7 9 4 5 - - 0.0
30/12:00am 8.9 6.2 5.5 79 1.6 NW 9 13 5 7 - - 0.0
 
Date/Time
WST
Temp
°C
App
Temp
°C
Dew
Point
Rel
Hum
%
Delta-T
°C
Wind Press
QNH
hPa
Press
MSL
hPa
Rain
since 9 am
mm
Dir
 
Spd
km/h
Gust
km/h
Spd
kts
Gust
kts
29/11:30pm 9.1 6.4 5.7 79 1.6 NW 9 13 5 7 - - 0.0
29/11:00pm 9.0 6.6 5.2 77 1.7 NW 7 13 4 7 - - 0.0
29/10:30pm 9.9 7.2 5.7 75 2.0 NW 9 11 5 6 - - 0.0
29/10:00pm 9.6 7.5 6.5 81 1.5 NW 7 9 4 5 - - 0.0
29/09:30pm 8.1 6.2 4.7 79 1.5 NW 4 6 2 3 - - 0.0
29/09:00pm 9.9 7.8 5.9 76 1.9 NW 6 9 3 5 - - 0.0
29/08:30pm 11.1 9.0 6.6 74 2.2 NW 7 11 4 6 - - 0.0
29/08:00pm 9.3 7.5 5.5 77 1.7 NNW 4 6 2 3 - - 0.0
29/07:30pm 10.2 8.4 5.2 71 2.3 NW 4 6 2 3 - - 0.0
29/07:00pm 12.3 10.6 5.9 65 3.0 NW 4 6 2 3 - - 0.0
29/06:30pm 14.0 12.5 6.6 61 3.6 WNW 4 9 2 5 - - 0.0
29/06:00pm 15.0 13.1 6.6 57 4.1 NW 6 9 3 5 - - 0.0
29/05:30pm 16.0 14.0 7.0 55 4.5 WNW 7 11 4 6 - - 0.0
29/05:00pm 16.4 14.1 7.3 55 4.6 WNW 9 13 5 7 - - 0.0
29/04:30pm 17.1 14.5 7.7 54 4.8 WNW 11 17 6 9 - - 0.0
29/04:00pm 17.1 14.2 8.0 55 4.7 WNW 13 19 7 10 - - 0.0
29/03:30pm 17.3 14.2 7.4 52 5.0 WNW 13 20 7 11 - - 0.0
29/03:00pm 17.6 13.9 7.9 53 5.0 WNW 17 28 9 15 - - 0.0
29/02:30pm 18.8 14.4 7.6 48 5.8 NW 20 28 11 15 - - 0.0
29/02:00pm 18.3 13.9 6.5 46 5.9 WNW 19 24 10 13 - - 0.0
29/01:30pm 18.4 14.2 7.5 49 5.6 WNW 19 32 10 17 - - 0.0
29/01:00pm 17.4 14.5 8.3 55 4.7 W 13 22 7 12 - - 0.0
29/12:30pm 16.9 13.4 8.8 59 4.2 W 17 26 9 14 - - 0.0
29/12:00pm 16.8 13.4 9.2 61 4.0 WNW 17 28 9 15 - - 0.0
29/11:30am 16.7 13.2 8.9 60 4.1 W 17 28 9 15 - - 0.0
29/11:00am 16.3 12.6 9.5 64 3.6 W 19 30 10 16 - - 0.0
29/10:30am 15.1 11.2 9.5 69 2.9 W 20 30 11 16 - - 0.0
29/10:00am 14.1 10.5 9.9 76 2.2 W 19 35 10 19 - - 0.0
29/09:30am 13.1 9.9 9.9 81 1.7 WNW 17 30 9 16 - - 0.0
29/09:00am 11.7 9.2 9.8 88 1.0 NW 13 20 7 11 - - 0.2
29/08:30am 10.4 8.5 9.0 91 0.7 WNW 9 17 5 9 - - 0.2
29/08:00am 9.8 7.7 8.4 91 0.7 WNW 9 15 5 8 - - 0.2
29/07:30am 9.3 7.2 8.1 92 0.6 NW 9 13 5 7 - - 0.2
29/07:00am 8.9 5.9 7.8 93 0.5 NW 13 20 7 11 - - 0.2
29/06:30am 8.5 5.9 7.6 94 0.4 NNW 11 19 6 10 - - 0.2
29/06:00am 8.0 5.2 6.9 93 0.5 NW 11 15 6 8 - - 0.0
29/05:30am 8.1 5.7 7.0 93 0.5 NNW 9 15 5 8 - - 0.0
29/05:00am 8.3 5.9 7.1 92 0.6 NW 9 15 5 8 - - 0.0
29/04:30am 8.8 6.2 7.6 92 0.6 NW 11 17 6 9 - - 0.0
29/04:00am 9.1 6.5 7.7 91 0.7 NW 11 17 6 9 - - 0.0
29/03:30am 9.3 6.4 8.1 92 0.6 NW 13 19 7 10 - - 0.0
29/03:00am 9.3 6.7 7.7 90 0.8 NW 11 15 6 8 - - 0.0
29/02:30am 10.2 7.4 8.5 89 0.8 NW 13 17 7 9 - - 0.0
29/02:00am 9.8 7.3 8.1 89 0.8 WNW 11 17 6 9 - - 0.0
29/01:30am 9.9 7.4 8.0 88 0.9 WNW 11 17 6 9 - - 0.0
29/01:00am 10.0 7.4 7.9 87 1.0 WNW 11 17 6 9 - - 0.0
29/12:30am 10.3 7.3 7.9 85 1.2 NW 13 19 7 10 - - 0.0
29/12:00am 10.6 8.0 7.8 83 1.4 NW 11 19 6 10 - - 0.0
 
Date/Time
WST
Temp
°C
App
Temp
°C
Dew
Point
Rel
Hum
%
Delta-T
°C
Wind Press
QNH
hPa
Press
MSL
hPa
Rain
since 9 am
mm
Dir
 
Spd
km/h
Gust
km/h
Spd
kts
Gust
kts
28/11:30pm 10.9 8.0 8.0 82 1.4 NW 13 24 7 13 - - 0.0
28/11:00pm 11.0 8.0 7.7 80 1.6 WNW 13 20 7 11 - - 0.0
28/10:30pm 11.5 8.6 8.0 79 1.7 WNW 13 20 7 11 - - 0.0
28/10:00pm 11.5 8.5 7.6 77 1.9 NW 13 20 7 11 - - 0.0
28/09:30pm 11.4 8.6 7.1 75 2.1 NW 11 19 6 10 - - 0.0
28/09:00pm 11.7 9.0 7.2 74 2.2 NW 11 17 6 9 - - 0.0
28/08:30pm 11.6 9.2 7.1 74 2.2 NNW 9 15 5 8 - - 0.0
28/08:00pm 12.5 10.1 7.2 70 2.6 NW 9 15 5 8 - - 0.0
28/07:30pm 12.6 10.2 7.1 69 2.7 WNW 9 15 5 8 - - 0.0
28/07:00pm 13.0 10.6 7.0 67 2.9 WNW 9 15 5 8 - - 0.0
28/06:30pm 14.0 11.2 7.1 63 3.4 WNW 11 17 6 9 - - 0.0
28/06:00pm 14.3 11.5 6.9 61 3.6 W 11 17 6 9 - - 0.0
28/05:30pm 14.9 11.4 7.0 59 3.9 W 15 24 8 13 - - 0.0
28/05:00pm 15.5 11.7 7.5 59 4.0 W 17 26 9 14 - - 0.0
28/04:30pm 16.5 12.1 7.2 54 4.7 W 20 33 11 18 - - 0.0
28/04:00pm 16.5 12.1 7.4 55 4.6 W 20 35 11 19 - - 0.0
28/03:30pm 17.3 12.2 7.6 53 5.0 WNW 24 41 13 22 - - 0.0
28/03:00pm 17.4 11.5 7.5 52 5.0 WNW 28 41 15 22 - - 0.0
28/02:30pm 17.1 11.5 7.2 52 5.0 WNW 26 39 14 21 - - 0.0
28/02:00pm 17.4 11.5 7.5 52 5.0 WNW 28 41 15 22 - - 0.0
28/01:30pm 17.3 11.5 7.9 54 4.8 WNW 28 52 15 28 - - 0.0
28/01:00pm 16.9 11.1 7.8 55 4.7 WNW 28 46 15 25 - - 0.0
28/12:58pm 16.9 11.1 7.8 55 4.7 WNW 28 46 15 25 - - 0.0
28/12:30pm 16.7 11.4 8.4 58 4.3 WNW 26 39 14 21 - - 0.0
28/12:15pm 16.1 10.3 8.1 59 4.1 WNW 28 46 15 25 - - 0.0
28/12:00pm 15.2 11.2 8.9 66 3.3 WNW 20 37 11 20 - - 0.0
28/11:30am 14.9 11.0 9.3 69 2.9 WNW 20 35 11 19 - - 0.0
28/11:00am 13.9 9.8 8.7 71 2.7 W 20 33 11 18 - - 0.0
28/10:30am 13.7 9.9 9.0 73 2.4 W 19 30 10 16 - - 0.0
28/10:00am 13.4 9.7 9.5 77 2.0 WNW 19 32 10 17 - - 0.0
28/09:30am 12.7 8.8 9.5 81 1.6 WNW 20 33 11 18 - - 0.0
28/09:00am 11.6 7.6 9.0 84 1.3 NW 20 33 11 18 - - 0.0
28/08:30am 10.7 6.8 8.8 88 1.0 WNW 19 32 10 17 - - 0.0
28/08:00am 9.8 5.8 8.1 89 0.8 NW 19 32 10 17 - - 0.0
28/07:30am 9.1 5.7 7.7 91 0.7 NW 15 22 8 12 - - 0.0
28/07:00am 8.7 5.3 7.5 92 0.6 NW 15 20 8 11 - - 0.0
28/06:30am 8.8 5.4 7.6 92 0.6 NW 15 20 8 11 - - 0.0
28/06:00am 8.9 5.5 7.7 92 0.6 NW 15 22 8 12 - - 0.0
28/05:30am 8.9 5.9 7.7 92 0.6 NW 13 20 7 11 - - 0.0
28/05:00am 8.8 5.4 7.6 92 0.6 NW 15 22 8 12 - - 0.0
28/04:30am 8.9 5.5 7.7 92 0.6 NW 15 22 8 12 - - 0.0
28/04:00am 9.1 5.7 7.7 91 0.7 NW 15 20 8 11 - - 0.0
28/03:30am 9.5 6.2 8.1 91 0.7 NW 15 19 8 10 - - 0.0
28/03:00am 9.5 6.6 8.1 91 0.7 NW 13 19 7 10 - - 0.0
28/02:30am 9.9 7.4 8.2 89 0.8 NW 11 17 6 9 - - 0.0
28/02:00am 10.4 8.4 8.5 88 0.9 NW 9 15 5 8 - - 0.0
28/01:30am 11.0 8.7 9.1 88 1.0 WNW 11 17 6 9 - - 0.0
28/01:00am 10.9 9.0 9.2 89 0.9 NW 9 15 5 8 - - 0.0
28/12:30am 10.5 8.4 8.4 87 1.0 NW 9 11 5 6 - - 0.0
28/12:00am 11.2 8.8 8.6 84 1.3 NW 11 17 6 9 - - 0.0
 
Date/Time
WST
Temp
°C
App
Temp
°C
Dew
Point
Rel
Hum
%
Delta-T
°C
Wind Press
QNH
hPa
Press
MSL
hPa
Rain
since 9 am
mm
Dir
 
Spd
km/h
Gust
km/h
Spd
kts
Gust
kts
27/11:30pm 11.5 9.5 8.7 83 1.4 WNW 9 15 5 8 - - 0.0
27/11:00pm 11.6 9.2 8.5 81 1.6 NW 11 19 6 10 - - 0.0
27/10:30pm 11.3 9.1 8.0 80 1.6 NW 9 13 5 7 - - 0.0
27/10:00pm 11.8 9.7 8.3 79 1.7 NW 9 15 5 8 - - 0.0
27/09:30pm 12.1 10.1 8.6 79 1.8 NW 9 17 5 9 - - 0.0
27/09:00pm 12.9 10.5 8.6 75 2.2 NW 11 17 6 9 - - 0.0
27/08:30pm 12.9 10.5 8.8 76 2.1 NW 11 17 6 9 - - 0.0
27/08:00pm 12.8 10.4 8.5 75 2.2 NNW 11 17 6 9 - - 0.0
27/07:30pm 12.8 10.3 8.3 74 2.3 NNW 11 15 6 8 - - 0.0
27/07:00pm 13.0 10.4 7.9 71 2.5 NNW 11 19 6 10 - - 0.0
27/06:30pm 13.6 11.1 8.0 69 2.8 NW 11 19 6 10 - - 0.0
27/06:00pm 13.7 12.0 8.5 71 2.6 NW 7 11 4 6 - - 0.0
27/05:30pm 14.2 12.5 8.4 68 2.9 WNW 7 13 4 7 - - 0.0
27/05:00pm 15.0 12.5 8.0 63 3.5 WNW 11 19 6 10 - - 0.0

Other Formats:

Comma delimited format used in spreadsheet applications
http://www.bom.gov.au/fwo/IDW60801/IDW60801.95639.axf

JavaScript Object Notation format (JSON) in row-major order
http://www.bom.gov.au/fwo/IDW60801/IDW60801.95639.json